Terminal Aerodrome Forecast
Issued by NWS Denver/Boulder, CO

Home | Current Version | Previous Version | Text Only | Print | Product List | Glossary On
Versions: 1 2 3 4 5 6 7 8 9 10 11 12 13 14 15 16 17 18 19 20 21 22 23 24 25 26 27 28 29 30 31 32 33 34 35 36 37 38 39 40 41 42 43 44 45 46 47 48 49 50
000
FTUS45 KBOU 010539
TAFDEN
TAF
KDEN 010539Z 0106/0212 01012G22KT P6SM VCSH SCT080 BKN140
     FM010700 03012KT P6SM VCSH SCT080 BKN140
     FM010900 VRB06KT P6SM SCT120 BKN220
     FM011100 23009KT P6SM SCT120 BKN220
     FM011600 02008KT P6SM FEW080 SCT120 BKN220
     FM012000 04010KT P6SM SCT080 BKN140 PROB30 0122/0202 VRB20G30KT
      -TSRA BKN080CB
     FM020300 18010KT P6SM SCT080 BKN140
     FM020600 21010KT P6SM FEW080 SCT140 BKN200=

USA.gov is the U.S. government's official web portal to all federal, state and local government web resources and services.